sensor_id;sensor_type;location;lat;lon;timestamp;P1;durP1;ratioP1;P2;durP2;ratioP2
25667;SDS011;18003;-33.830;151.202;2022-12-11T00:00:33;9.63;;;3.22;;
25667;SDS011;18003;-33.830;151.202;2022-12-11T00:03:07;8.73;;;2.60;;
25667;SDS011;18003;-33.830;151.202;2022-12-11T00:05:40;5.95;;;2.90;;
25667;SDS011;18003;-33.830;151.202;2022-12-11T00:08:12;9.78;;;3.00;;
25667;SDS011;18003;-33.830;151.202;2022-12-11T00:10:48;7.20;;;3.15;;
25667;SDS011;18003;-33.830;151.202;2022-12-11T00:13:18;7.97;;;3.10;;
25667;SDS011;18003;-33.830;151.202;2022-12-11T00:15:48;7.75;;;2.90;;
25667;SDS011;18003;-33.830;151.202;2022-12-11T00:18:18;11.12;;;3.17;;
25667;SDS011;18003;-33.830;151.202;2022-12-11T00:20:47;6.47;;;3.25;;
25667;SDS011;18003;-33.830;151.202;2022-12-11T00:23:17;6.92;;;2.60;;
25667;SDS011;18003;-33.830;151.202;2022-12-11T00:25:47;8.80;;;2.83;;
25667;SDS011;18003;-33.830;151.202;2022-12-11T00:28:17;12.50;;;2.75;;
25667;SDS011;18003;-33.830;151.202;2022-12-11T00:30:47;7.53;;;2.98;;
25667;SDS011;18003;-33.830;151.202;2022-12-11T00:33:17;8.03;;;3.15;;
25667;SDS011;18003;-33.830;151.202;2022-12-11T00:35:47;6.92;;;3.08;;
25667;SDS011;18003;-33.830;151.202;2022-12-11T00:38:18;5.25;;;3.00;;
25667;SDS011;18003;-33.830;151.202;2022-12-11T00:43:17;8.78;;;3.12;;
25667;SDS011;18003;-33.830;151.202;2022-12-11T00:45:47;6.85;;;3.37;;
25667;SDS011;18003;-33.830;151.202;2022-12-11T00:48:17;6.90;;;3.00;;
25667;SDS011;18003;-33.830;151.202;2022-12-11T00:50:47;4.65;;;2.55;;
25667;SDS011;18003;-33.830;151.202;2022-12-11T00:53:17;7.90;;;2.65;;
25667;SDS011;18003;-33.830;151.202;2022-12-11T00:55:47;5.50;;;2.62;;
25667;SDS011;18003;-33.830;151.202;2022-12-11T00:58:17;7.53;;;2.80;;
25667;SDS011;18003;-33.830;151.202;2022-12-11T01:00:47;6.45;;;2.33;;
25667;SDS011;18003;-33.830;151.202;2022-12-11T01:03:17;8.75;;;2.77;;
25667;SDS011;18003;-33.830;151.202;2022-12-11T01:05:51;10.78;;;3.02;;
25667;SDS011;18003;-33.830;151.202;2022-12-11T01:08:21;8.60;;;3.00;;
25667;SDS011;18003;-33.830;151.202;2022-12-11T01:10:59;6.50;;;2.80;;
25667;SDS011;18003;-33.830;151.202;2022-12-11T01:13:23;8.13;;;3.17;;
25667;SDS011;18003;-33.830;151.202;2022-12-11T01:15:53;9.53;;;2.60;;
25667;SDS011;18003;-33.830;151.202;2022-12-11T01:18:23;12.68;;;2.87;;
25667;SDS011;18003;-33.830;151.202;2022-12-11T01:20:53;8.58;;;3.02;;
25667;SDS011;18003;-33.830;151.202;2022-12-11T01:23:23;7.55;;;2.35;;
25667;SDS011;18003;-33.830;151.202;2022-12-11T01:25:53;7.08;;;2.58;;
25667;SDS011;18003;-33.830;151.202;2022-12-11T01:28:23;6.28;;;2.70;;
25667;SDS011;18003;-33.830;151.202;2022-12-11T01:30:53;6.83;;;2.40;;
25667;SDS011;18003;-33.830;151.202;2022-12-11T01:33:23;7.80;;;2.52;;
25667;SDS011;18003;-33.830;151.202;2022-12-11T01:35:53;6.22;;;3.02;;
25667;SDS011;18003;-33.830;151.202;2022-12-11T01:38:23;7.53;;;2.47;;
25667;SDS011;18003;-33.830;151.202;2022-12-11T01:40:53;6.28;;;2.22;;
25667;SDS011;18003;-33.830;151.202;2022-12-11T01:43:23;5.22;;;2.20;;
25667;SDS011;18003;-33.830;151.202;2022-12-11T01:45:53;7.00;;;2.50;;
25667;SDS011;18003;-33.830;151.202;2022-12-11T01:48:24;6.42;;;2.67;;
25667;SDS011;18003;-33.830;151.202;2022-12-11T01:50:58;8.38;;;2.72;;
25667;SDS011;18003;-33.830;151.202;2022-12-11T01:53:38;5.37;;;2.50;;
25667;SDS011;18003;-33.830;151.202;2022-12-11T01:56:04;5.67;;;2.70;;
25667;SDS011;18003;-33.830;151.202;2022-12-11T01:58:39;7.22;;;2.50;;
25667;SDS011;18003;-33.830;151.202;2022-12-11T02:01:31;6.17;;;2.33;;
25667;SDS011;18003;-33.830;151.202;2022-12-11T02:03:57;7.05;;;2.67;;
25667;SDS011;18003;-33.830;151.202;2022-12-11T02:06:36;4.83;;;2.70;;
25667;SDS011;18003;-33.830;151.202;2022-12-11T02:09:14;6.53;;;2.72;;
25667;SDS011;18003;-33.830;151.202;2022-12-11T02:11:46;6.55;;;2.70;;
25667;SDS011;18003;-33.830;151.202;2022-12-11T02:17:28;5.03;;;2.70;;
25667;SDS011;18003;-33.830;151.202;2022-12-11T02:20:15;6.25;;;2.40;;
25667;SDS011;18003;-33.830;151.202;2022-12-11T02:22:52;7.53;;;2.67;;
25667;SDS011;18003;-33.830;151.202;2022-12-11T02:25:25;8.18;;;2.52;;
25667;SDS011;18003;-33.830;151.202;2022-12-11T02:28:14;7.97;;;2.87;;
25667;SDS011;18003;-33.830;151.202;2022-12-11T02:30:47;8.23;;;3.12;;
25667;SDS011;18003;-33.830;151.202;2022-12-11T02:33:26;6.80;;;2.80;;
25667;SDS011;18003;-33.830;151.202;2022-12-11T02:35:59;9.85;;;2.87;;
25667;SDS011;18003;-33.830;151.202;2022-12-11T02:38:31;8.58;;;2.60;;
25667;SDS011;18003;-33.830;151.202;2022-12-11T02:41:02;5.20;;;2.80;;
25667;SDS011;18003;-33.830;151.202;2022-12-11T02:43:34;7.65;;;2.80;;
25667;SDS011;18003;-33.830;151.202;2022-12-11T02:46:06;6.87;;;2.80;;
25667;SDS011;18003;-33.830;151.202;2022-12-11T02:48:36;5.55;;;3.02;;
25667;SDS011;18003;-33.830;151.202;2022-12-11T02:51:08;6.40;;;3.00;;
25667;SDS011;18003;-33.830;151.202;2022-12-11T02:56:11;7.15;;;3.10;;
25667;SDS011;18003;-33.830;151.202;2022-12-11T02:58:42;9.43;;;3.20;;
25667;SDS011;18003;-33.830;151.202;2022-12-11T03:01:16;8.50;;;3.50;;
25667;SDS011;18003;-33.830;151.202;2022-12-11T03:03:46;7.55;;;3.17;;
25667;SDS011;18003;-33.830;151.202;2022-12-11T03:06:17;6.70;;;2.95;;
25667;SDS011;18003;-33.830;151.202;2022-12-11T03:08:47;4.35;;;2.65;;
25667;SDS011;18003;-33.830;151.202;2022-12-11T03:11:17;4.00;;;2.85;;
25667;SDS011;18003;-33.830;151.202;2022-12-11T03:13:48;7.17;;;2.83;;
25667;SDS011;18003;-33.830;151.202;2022-12-11T03:16:23;5.57;;;2.90;;
25667;SDS011;18003;-33.830;151.202;2022-12-11T03:19:01;5.00;;;2.80;;
25667;SDS011;18003;-33.830;151.202;2022-12-11T03:24:27;5.97;;;3.27;;
25667;SDS011;18003;-33.830;151.202;2022-12-11T03:27:05;5.60;;;2.80;;
25667;SDS011;18003;-33.830;151.202;2022-12-11T03:29:38;4.20;;;2.52;;
25667;SDS011;18003;-33.830;151.202;2022-12-11T03:32:17;3.98;;;2.40;;
25667;SDS011;18003;-33.830;151.202;2022-12-11T03:34:51;4.78;;;2.58;;
25667;SDS011;18003;-33.830;151.202;2022-12-11T03:37:17;5.10;;;2.33;;
25667;SDS011;18003;-33.830;151.202;2022-12-11T03:39:50;3.80;;;1.92;;
25667;SDS011;18003;-33.830;151.202;2022-12-11T03:42:20;4.12;;;2.42;;
25667;SDS011;18003;-33.830;151.202;2022-12-11T03:44:51;4.45;;;2.12;;
25667;SDS011;18003;-33.830;151.202;2022-12-11T03:47:23;4.60;;;2.15;;
25667;SDS011;18003;-33.830;151.202;2022-12-11T03:49:55;4.58;;;2.77;;
25667;SDS011;18003;-33.830;151.202;2022-12-11T03:52:26;5.55;;;2.40;;
25667;SDS011;18003;-33.830;151.202;2022-12-11T03:54:58;4.25;;;2.45;;
25667;SDS011;18003;-33.830;151.202;2022-12-11T03:57:30;4.75;;;2.65;;
25667;SDS011;18003;-33.830;151.202;2022-12-11T04:00:03;3.60;;;2.60;;
25667;SDS011;18003;-33.830;151.202;2022-12-11T04:02:33;6.90;;;2.87;;
25667;SDS011;18003;-33.830;151.202;2022-12-11T04:05:03;4.90;;;2.83;;
25667;SDS011;18003;-33.830;151.202;2022-12-11T04:07:34;6.00;;;2.87;;
25667;SDS011;18003;-33.830;151.202;2022-12-11T04:10:05;4.00;;;2.60;;
25667;SDS011;18003;-33.830;151.202;2022-12-11T04:12:35;6.58;;;3.40;;
25667;SDS011;18003;-33.830;151.202;2022-12-11T04:15:06;3.05;;;2.75;;
25667;SDS011;18003;-33.830;151.202;2022-12-11T04:17:36;7.70;;;2.73;;
25667;SDS011;18003;-33.830;151.202;2022-12-11T04:20:22;6.45;;;2.72;;
25667;SDS011;18003;-33.830;151.202;2022-12-11T04:23:10;5.95;;;2.62;;
25667;SDS011;18003;-33.830;151.202;2022-12-11T04:26:05;5.03;;;2.20;;
25667;SDS011;18003;-33.830;151.202;2022-12-11T04:28:37;4.05;;;2.33;;
25667;SDS011;18003;-33.830;151.202;2022-12-11T04:31:14;3.67;;;2.27;;
25667;SDS011;18003;-33.830;151.202;2022-12-11T04:33:46;6.10;;;2.08;;
25667;SDS011;18003;-33.830;151.202;2022-12-11T04:36:16;5.92;;;2.27;;
25667;SDS011;18003;-33.830;151.202;2022-12-11T04:38:46;5.35;;;2.12;;
25667;SDS011;18003;-33.830;151.202;2022-12-11T04:41:16;4.28;;;2.27;;
25667;SDS011;18003;-33.830;151.202;2022-12-11T04:43:45;5.83;;;2.40;;
25667;SDS011;18003;-33.830;151.202;2022-12-11T04:46:19;5.83;;;2.50;;
25667;SDS011;18003;-33.830;151.202;2022-12-11T04:48:49;5.83;;;2.60;;
25667;SDS011;18003;-33.830;151.202;2022-12-11T04:51:19;5.80;;;2.10;;
25667;SDS011;18003;-33.830;151.202;2022-12-11T04:53:49;5.87;;;2.50;;
25667;SDS011;18003;-33.830;151.202;2022-12-11T04:56:19;5.30;;;2.50;;
25667;SDS011;18003;-33.830;151.202;2022-12-11T04:58:49;3.52;;;2.27;;
25667;SDS011;18003;-33.830;151.202;2022-12-11T05:01:20;4.80;;;2.60;;
25667;SDS011;18003;-33.830;151.202;2022-12-11T05:03:50;4.12;;;2.60;;
25667;SDS011;18003;-33.830;151.202;2022-12-11T05:06:20;3.70;;;2.77;;
25667;SDS011;18003;-33.830;151.202;2022-12-11T05:08:49;5.20;;;2.50;;
25667;SDS011;18003;-33.830;151.202;2022-12-11T05:11:19;5.47;;;2.42;;
25667;SDS011;18003;-33.830;151.202;2022-12-11T05:13:49;8.20;;;2.60;;
25667;SDS011;18003;-33.830;151.202;2022-12-11T05:16:21;8.10;;;2.55;;
25667;SDS011;18003;-33.830;151.202;2022-12-11T05:18:50;7.40;;;2.50;;
25667;SDS011;18003;-33.830;151.202;2022-12-11T05:21:21;5.72;;;2.30;;
25667;SDS011;18003;-33.830;151.202;2022-12-11T05:23:51;5.10;;;2.62;;
25667;SDS011;18003;-33.830;151.202;2022-12-11T05:26:20;6.42;;;2.70;;
25667;SDS011;18003;-33.830;151.202;2022-12-11T05:28:50;6.28;;;2.58;;
25667;SDS011;18003;-33.830;151.202;2022-12-11T05:31:22;5.55;;;2.90;;
25667;SDS011;18003;-33.830;151.202;2022-12-11T05:33:53;8.13;;;2.52;;
25667;SDS011;18003;-33.830;151.202;2022-12-11T05:36:23;6.72;;;2.75;;
25667;SDS011;18003;-33.830;151.202;2022-12-11T05:38:55;7.83;;;2.33;;
25667;SDS011;18003;-33.830;151.202;2022-12-11T05:43:56;7.53;;;2.80;;
25667;SDS011;18003;-33.830;151.202;2022-12-11T05:46:42;7.12;;;2.70;;
25667;SDS011;18003;-33.830;151.202;2022-12-11T05:49:27;7.17;;;2.72;;
25667;SDS011;18003;-33.830;151.202;2022-12-11T05:52:00;7.83;;;2.60;;
25667;SDS011;18003;-33.830;151.202;2022-12-11T05:54:31;6.40;;;2.17;;
25667;SDS011;18003;-33.830;151.202;2022-12-11T05:57:01;5.33;;;2.60;;
25667;SDS011;18003;-33.830;151.202;2022-12-11T05:59:31;5.08;;;2.72;;
25667;SDS011;18003;-33.830;151.202;2022-12-11T06:02:00;6.85;;;2.50;;
25667;SDS011;18003;-33.830;151.202;2022-12-11T06:04:31;5.60;;;2.60;;
25667;SDS011;18003;-33.830;151.202;2022-12-11T06:07:01;4.70;;;2.90;;
25667;SDS011;18003;-33.830;151.202;2022-12-11T06:09:31;7.40;;;2.87;;
25667;SDS011;18003;-33.830;151.202;2022-12-11T06:12:01;6.83;;;2.90;;
25667;SDS011;18003;-33.830;151.202;2022-12-11T06:14:31;6.92;;;2.90;;
25667;SDS011;18003;-33.830;151.202;2022-12-11T06:17:01;6.17;;;3.10;;
25667;SDS011;18003;-33.830;151.202;2022-12-11T06:19:31;10.67;;;2.70;;
25667;SDS011;18003;-33.830;151.202;2022-12-11T06:22:01;7.85;;;2.50;;
25667;SDS011;18003;-33.830;151.202;2022-12-11T06:24:31;8.88;;;2.77;;
25667;SDS011;18003;-33.830;151.202;2022-12-11T06:27:01;6.72;;;2.80;;
25667;SDS011;18003;-33.830;151.202;2022-12-11T06:29:31;17.92;;;3.27;;
25667;SDS011;18003;-33.830;151.202;2022-12-11T06:32:01;10.45;;;3.05;;
25667;SDS011;18003;-33.830;151.202;2022-12-11T06:34:32;5.83;;;2.40;;
25667;SDS011;18003;-33.830;151.202;2022-12-11T06:37:02;6.50;;;2.42;;
25667;SDS011;18003;-33.830;151.202;2022-12-11T06:39:32;5.40;;;2.22;;
25667;SDS011;18003;-33.830;151.202;2022-12-11T06:42:02;8.55;;;2.60;;
25667;SDS011;18003;-33.830;151.202;2022-12-11T06:44:32;6.92;;;2.60;;
25667;SDS011;18003;-33.830;151.202;2022-12-11T06:47:02;9.43;;;2.50;;
25667;SDS011;18003;-33.830;151.202;2022-12-11T06:49:32;7.67;;;2.50;;
25667;SDS011;18003;-33.830;151.202;2022-12-11T06:52:02;9.45;;;2.75;;
25667;SDS011;18003;-33.830;151.202;2022-12-11T06:54:32;9.00;;;2.77;;
25667;SDS011;18003;-33.830;151.202;2022-12-11T06:57:02;13.28;;;3.08;;
25667;SDS011;18003;-33.830;151.202;2022-12-11T06:59:32;10.50;;;2.90;;
25667;SDS011;18003;-33.830;151.202;2022-12-11T07:02:02;13.30;;;3.02;;
25667;SDS011;18003;-33.830;151.202;2022-12-11T07:04:33;9.35;;;2.67;;
25667;SDS011;18003;-33.830;151.202;2022-12-11T07:07:03;11.28;;;3.02;;
25667;SDS011;18003;-33.830;151.202;2022-12-11T07:09:34;11.03;;;3.05;;
25667;SDS011;18003;-33.830;151.202;2022-12-11T07:12:06;8.38;;;2.80;;
25667;SDS011;18003;-33.830;151.202;2022-12-11T07:14:36;7.65;;;3.00;;
25667;SDS011;18003;-33.830;151.202;2022-12-11T07:17:07;6.35;;;2.47;;
25667;SDS011;18003;-33.830;151.202;2022-12-11T07:19:37;6.80;;;2.67;;
25667;SDS011;18003;-33.830;151.202;2022-12-11T07:22:07;9.30;;;3.03;;
25667;SDS011;18003;-33.830;151.202;2022-12-11T07:24:37;12.80;;;2.90;;
25667;SDS011;18003;-33.830;151.202;2022-12-11T07:27:07;7.10;;;2.90;;
25667;SDS011;18003;-33.830;151.202;2022-12-11T07:29:37;9.05;;;2.70;;
25667;SDS011;18003;-33.830;151.202;2022-12-11T07:32:07;6.80;;;2.52;;
25667;SDS011;18003;-33.830;151.202;2022-12-11T07:34:37;7.05;;;2.50;;
25667;SDS011;18003;-33.830;151.202;2022-12-11T07:37:07;7.58;;;3.90;;
25667;SDS011;18003;-33.830;151.202;2022-12-11T07:39:36;7.53;;;2.90;;
25667;SDS011;18003;-33.830;151.202;2022-12-11T07:42:06;12.45;;;3.05;;
25667;SDS011;18003;-33.830;151.202;2022-12-11T07:44:36;12.00;;;2.95;;
25667;SDS011;18003;-33.830;151.202;2022-12-11T07:47:06;5.97;;;2.40;;
25667;SDS011;18003;-33.830;151.202;2022-12-11T07:49:36;7.17;;;2.40;;
25667;SDS011;18003;-33.830;151.202;2022-12-11T07:52:06;7.62;;;2.45;;
25667;SDS011;18003;-33.830;151.202;2022-12-11T07:54:36;9.45;;;2.60;;
25667;SDS011;18003;-33.830;151.202;2022-12-11T07:57:06;8.63;;;2.67;;
25667;SDS011;18003;-33.830;151.202;2022-12-11T07:59:36;6.60;;;2.30;;
25667;SDS011;18003;-33.830;151.202;2022-12-11T08:02:08;8.17;;;2.33;;
25667;SDS011;18003;-33.830;151.202;2022-12-11T08:04:38;6.50;;;2.42;;
25667;SDS011;18003;-33.830;151.202;2022-12-11T08:07:27;9.43;;;2.75;;
25667;SDS011;18003;-33.830;151.202;2022-12-11T08:09:57;7.25;;;2.30;;
25667;SDS011;18003;-33.830;151.202;2022-12-11T08:12:27;9.38;;;2.40;;
25667;SDS011;18003;-33.830;151.202;2022-12-11T08:14:57;7.90;;;2.58;;
25667;SDS011;18003;-33.830;151.202;2022-12-11T08:17:27;4.17;;;2.33;;
25667;SDS011;18003;-33.830;151.202;2022-12-11T08:19:57;8.58;;;2.45;;
25667;SDS011;18003;-33.830;151.202;2022-12-11T08:22:28;5.60;;;2.47;;
25667;SDS011;18003;-33.830;151.202;2022-12-11T08:24:58;8.23;;;2.40;;
25667;SDS011;18003;-33.830;151.202;2022-12-11T08:27:28;6.72;;;2.42;;
25667;SDS011;18003;-33.830;151.202;2022-12-11T08:29:58;7.53;;;2.10;;
25667;SDS011;18003;-33.830;151.202;2022-12-11T08:32:27;5.95;;;2.27;;
25667;SDS011;18003;-33.830;151.202;2022-12-11T08:34:57;9.35;;;2.58;;
25667;SDS011;18003;-33.830;151.202;2022-12-11T08:37:27;6.53;;;2.10;;
25667;SDS011;18003;-33.830;151.202;2022-12-11T08:39:57;6.55;;;2.65;;
25667;SDS011;18003;-33.830;151.202;2022-12-11T08:42:27;6.80;;;2.20;;
25667;SDS011;18003;-33.830;151.202;2022-12-11T08:44:57;7.00;;;2.35;;
25667;SDS011;18003;-33.830;151.202;2022-12-11T08:47:26;7.20;;;2.25;;
25667;SDS011;18003;-33.830;151.202;2022-12-11T08:49:56;8.03;;;2.12;;
25667;SDS011;18003;-33.830;151.202;2022-12-11T08:52:26;5.40;;;2.22;;
25667;SDS011;18003;-33.830;151.202;2022-12-11T08:54:56;11.45;;;2.92;;
25667;SDS011;18003;-33.830;151.202;2022-12-11T08:57:29;9.13;;;2.47;;
25667;SDS011;18003;-33.830;151.202;2022-12-11T08:59:59;5.12;;;1.95;;
25667;SDS011;18003;-33.830;151.202;2022-12-11T09:02:29;7.90;;;2.62;;
25667;SDS011;18003;-33.830;151.202;2022-12-11T09:04:59;7.37;;;2.42;;
25667;SDS011;18003;-33.830;151.202;2022-12-11T09:07:28;7.83;;;2.45;;
25667;SDS011;18003;-33.830;151.202;2022-12-11T09:09:58;5.90;;;2.22;;
25667;SDS011;18003;-33.830;151.202;2022-12-11T09:12:28;10.75;;;2.67;;
25667;SDS011;18003;-33.830;151.202;2022-12-11T09:14:58;9.23;;;2.80;;
25667;SDS011;18003;-33.830;151.202;2022-12-11T09:17:28;8.83;;;2.58;;
25667;SDS011;18003;-33.830;151.202;2022-12-11T09:19:57;8.40;;;2.70;;
25667;SDS011;18003;-33.830;151.202;2022-12-11T09:22:27;6.95;;;2.58;;
25667;SDS011;18003;-33.830;151.202;2022-12-11T09:25:00;6.50;;;2.52;;
25667;SDS011;18003;-33.830;151.202;2022-12-11T09:27:30;7.53;;;2.80;;
25667;SDS011;18003;-33.830;151.202;2022-12-11T09:30:00;10.10;;;3.20;;
25667;SDS011;18003;-33.830;151.202;2022-12-11T09:32:30;9.78;;;3.15;;
25667;SDS011;18003;-33.830;151.202;2022-12-11T09:35:00;12.37;;;3.10;;
25667;SDS011;18003;-33.830;151.202;2022-12-11T09:37:31;7.95;;;2.80;;
25667;SDS011;18003;-33.830;151.202;2022-12-11T09:40:01;11.10;;;2.98;;
25667;SDS011;18003;-33.830;151.202;2022-12-11T09:43:17;11.55;;;3.25;;
25667;SDS011;18003;-33.830;151.202;2022-12-11T09:45:09;10.78;;;3.33;;
25667;SDS011;18003;-33.830;151.202;2022-12-11T09:47:40;8.80;;;3.30;;
25667;SDS011;18003;-33.830;151.202;2022-12-11T09:53:02;10.25;;;3.15;;
25667;SDS011;18003;-33.830;151.202;2022-12-11T09:55:58;10.95;;;3.30;;
25667;SDS011;18003;-33.830;151.202;2022-12-11T09:58:41;8.58;;;3.10;;
25667;SDS011;18003;-33.830;151.202;2022-12-11T10:09:18;11.55;;;3.10;;
25667;SDS011;18003;-33.830;151.202;2022-12-11T10:17:33;9.73;;;3.42;;
25667;SDS011;18003;-33.830;151.202;2022-12-11T10:22:42;12.93;;;3.37;;
25667;SDS011;18003;-33.830;151.202;2022-12-11T10:25:19;10.48;;;3.62;;
25667;SDS011;18003;-33.830;151.202;2022-12-11T10:28:10;10.32;;;3.50;;
25667;SDS011;18003;-33.830;151.202;2022-12-11T10:30:44;11.95;;;4.20;;
25667;SDS011;18003;-33.830;151.202;2022-12-11T10:33:30;11.68;;;4.45;;
25667;SDS011;18003;-33.830;151.202;2022-12-11T10:36:07;11.38;;;4.47;;
25667;SDS011;18003;-33.830;151.202;2022-12-11T10:38:38;12.15;;;4.80;;
25667;SDS011;18003;-33.830;151.202;2022-12-11T10:41:13;13.43;;;4.85;;
25667;SDS011;18003;-33.830;151.202;2022-12-11T10:43:47;12.98;;;4.17;;
25667;SDS011;18003;-33.830;151.202;2022-12-11T10:46:23;13.25;;;4.55;;
25667;SDS011;18003;-33.830;151.202;2022-12-11T10:48:56;12.70;;;4.37;;
25667;SDS011;18003;-33.830;151.202;2022-12-11T10:54:04;9.18;;;3.90;;
25667;SDS011;18003;-33.830;151.202;2022-12-11T10:56:35;15.32;;;3.95;;
25667;SDS011;18003;-33.830;151.202;2022-12-11T10:59:12;13.30;;;4.00;;
25667;SDS011;18003;-33.830;151.202;2022-12-11T11:01:38;16.27;;;4.20;;
25667;SDS011;18003;-33.830;151.202;2022-12-11T11:04:18;13.72;;;4.00;;
25667;SDS011;18003;-33.830;151.202;2022-12-11T11:06:59;15.43;;;4.28;;
25667;SDS011;18003;-33.830;151.202;2022-12-11T11:09:35;13.85;;;4.45;;
25667;SDS011;18003;-33.830;151.202;2022-12-11T11:12:18;14.75;;;4.33;;
25667;SDS011;18003;-33.830;151.202;2022-12-11T11:15:11;12.47;;;3.70;;
25667;SDS011;18003;-33.830;151.202;2022-12-11T11:17:45;13.70;;;4.12;;
25667;SDS011;18003;-33.830;151.202;2022-12-11T11:20:12;14.15;;;4.05;;
25667;SDS011;18003;-33.830;151.202;2022-12-11T11:22:49;12.03;;;3.60;;
25667;SDS011;18003;-33.830;151.202;2022-12-11T11:25:16;14.13;;;3.77;;
25667;SDS011;18003;-33.830;151.202;2022-12-11T11:27:55;18.75;;;4.85;;
25667;SDS011;18003;-33.830;151.202;2022-12-11T11:30:26;12.13;;;3.75;;
25667;SDS011;18003;-33.830;151.202;2022-12-11T11:33:14;15.13;;;4.12;;
25667;SDS011;18003;-33.830;151.202;2022-12-11T11:35:51;10.35;;;4.20;;
25667;SDS011;18003;-33.830;151.202;2022-12-11T11:38:30;15.38;;;4.08;;
25667;SDS011;18003;-33.830;151.202;2022-12-11T11:40:59;13.15;;;4.15;;
25667;SDS011;18003;-33.830;151.202;2022-12-11T11:43:43;13.45;;;4.53;;
25667;SDS011;18003;-33.830;151.202;2022-12-11T11:46:22;11.03;;;3.95;;
25667;SDS011;18003;-33.830;151.202;2022-12-11T11:48:57;15.48;;;4.72;;
25667;SDS011;18003;-33.830;151.202;2022-12-11T11:51:31;15.55;;;4.20;;
25667;SDS011;18003;-33.830;151.202;2022-12-11T11:54:02;14.90;;;4.72;;
25667;SDS011;18003;-33.830;151.202;2022-12-11T11:56:33;14.03;;;4.45;;
25667;SDS011;18003;-33.830;151.202;2022-12-11T12:01:53;15.40;;;4.58;;
25667;SDS011;18003;-33.830;151.202;2022-12-11T12:09:40;13.18;;;4.22;;
25667;SDS011;18003;-33.830;151.202;2022-12-11T12:12:55;12.60;;;3.80;;
25667;SDS011;18003;-33.830;151.202;2022-12-11T12:15:00;11.40;;;3.77;;
25667;SDS011;18003;-33.830;151.202;2022-12-11T12:17:45;10.72;;;3.40;;
25667;SDS011;18003;-33.830;151.202;2022-12-11T12:20:15;9.78;;;3.65;;
25667;SDS011;18003;-33.830;151.202;2022-12-11T12:28:55;13.00;;;4.10;;
25667;SDS011;18003;-33.830;151.202;2022-12-11T12:45:50;11.28;;;3.67;;
25667;SDS011;18003;-33.830;151.202;2022-12-11T12:48:19;7.80;;;3.25;;
25667;SDS011;18003;-33.830;151.202;2022-12-11T12:50:51;9.83;;;3.67;;
25667;SDS011;18003;-33.830;151.202;2022-12-11T12:53:22;8.05;;;3.50;;
25667;SDS011;18003;-33.830;151.202;2022-12-11T12:55:53;8.33;;;3.65;;
25667;SDS011;18003;-33.830;151.202;2022-12-11T12:58:25;8.43;;;3.72;;
25667;SDS011;18003;-33.830;151.202;2022-12-11T13:01:14;7.03;;;3.10;;
25667;SDS011;18003;-33.830;151.202;2022-12-11T13:06:43;7.12;;;3.50;;
25667;SDS011;18003;-33.830;151.202;2022-12-11T13:09:21;6.40;;;3.05;;
25667;SDS011;18003;-33.830;151.202;2022-12-11T13:11:47;7.40;;;3.27;;
25667;SDS011;18003;-33.830;151.202;2022-12-11T13:17:02;5.92;;;2.95;;
25667;SDS011;18003;-33.830;151.202;2022-12-11T13:19:33;7.22;;;3.25;;
25667;SDS011;18003;-33.830;151.202;2022-12-11T13:22:16;7.55;;;2.95;;
25667;SDS011;18003;-33.830;151.202;2022-12-11T13:24:35;5.20;;;2.80;;
25667;SDS011;18003;-33.830;151.202;2022-12-11T13:27:23;7.25;;;2.90;;
25667;SDS011;18003;-33.830;151.202;2022-12-11T13:30:07;7.25;;;3.12;;
25667;SDS011;18003;-33.830;151.202;2022-12-11T13:33:06;5.10;;;2.83;;
25667;SDS011;18003;-33.830;151.202;2022-12-11T13:35:32;5.28;;;2.80;;
25667;SDS011;18003;-33.830;151.202;2022-12-11T13:38:36;6.55;;;3.20;;
25667;SDS011;18003;-33.830;151.202;2022-12-11T13:40:42;6.67;;;3.40;;
25667;SDS011;18003;-33.830;151.202;2022-12-11T13:43:26;8.45;;;3.37;;
25667;SDS011;18003;-33.830;151.202;2022-12-11T13:46:01;5.00;;;2.98;;
25667;SDS011;18003;-33.830;151.202;2022-12-11T13:51:12;6.35;;;3.10;;
25667;SDS011;18003;-33.830;151.202;2022-12-11T13:53:42;7.53;;;3.12;;
25667;SDS011;18003;-33.830;151.202;2022-12-11T13:56:15;6.40;;;2.75;;
25667;SDS011;18003;-33.830;151.202;2022-12-11T13:58:47;4.50;;;2.80;;
25667;SDS011;18003;-33.830;151.202;2022-12-11T14:01:25;5.15;;;2.70;;
25667;SDS011;18003;-33.830;151.202;2022-12-11T14:04:02;4.30;;;2.80;;
25667;SDS011;18003;-33.830;151.202;2022-12-11T14:06:33;6.08;;;3.08;;
25667;SDS011;18003;-33.830;151.202;2022-12-11T14:09:05;4.85;;;3.00;;
25667;SDS011;18003;-33.830;151.202;2022-12-11T14:11:36;5.55;;;2.90;;
25667;SDS011;18003;-33.830;151.202;2022-12-11T14:14:15;5.60;;;3.08;;
25667;SDS011;18003;-33.830;151.202;2022-12-11T14:16:51;6.65;;;2.98;;
25667;SDS011;18003;-33.830;151.202;2022-12-11T14:19:22;5.53;;;3.20;;
25667;SDS011;18003;-33.830;151.202;2022-12-11T14:21:59;4.95;;;2.90;;
25667;SDS011;18003;-33.830;151.202;2022-12-11T14:24:30;6.58;;;2.90;;
25667;SDS011;18003;-33.830;151.202;2022-12-11T14:27:01;5.45;;;3.15;;
25667;SDS011;18003;-33.830;151.202;2022-12-11T14:29:31;5.08;;;2.50;;
25667;SDS011;18003;-33.830;151.202;2022-12-11T14:32:02;4.75;;;2.85;;
25667;SDS011;18003;-33.830;151.202;2022-12-11T14:34:36;5.87;;;2.90;;
25667;SDS011;18003;-33.830;151.202;2022-12-11T14:37:06;5.42;;;2.70;;
25667;SDS011;18003;-33.830;151.202;2022-12-11T14:39:39;7.22;;;2.95;;
25667;SDS011;18003;-33.830;151.202;2022-12-11T14:42:23;8.63;;;3.25;;
25667;SDS011;18003;-33.830;151.202;2022-12-11T14:44:58;4.50;;;2.83;;
25667;SDS011;18003;-33.830;151.202;2022-12-11T14:47:36;6.75;;;3.30;;
25667;SDS011;18003;-33.830;151.202;2022-12-11T14:52:43;7.83;;;3.15;;
25667;SDS011;18003;-33.830;151.202;2022-12-11T14:55:16;5.05;;;2.67;;
25667;SDS011;18003;-33.830;151.202;2022-12-11T14:57:47;6.17;;;2.80;;
25667;SDS011;18003;-33.830;151.202;2022-12-11T15:00:22;5.40;;;2.58;;
25667;SDS011;18003;-33.830;151.202;2022-12-11T15:02:57;6.55;;;2.80;;
25667;SDS011;18003;-33.830;151.202;2022-12-11T15:05:31;7.92;;;2.75;;
25667;SDS011;18003;-33.830;151.202;2022-12-11T15:08:02;6.12;;;2.47;;
25667;SDS011;18003;-33.830;151.202;2022-12-11T15:10:43;6.03;;;2.80;;
25667;SDS011;18003;-33.830;151.202;2022-12-11T15:13:30;4.83;;;2.65;;
25667;SDS011;18003;-33.830;151.202;2022-12-11T15:16:00;6.53;;;2.80;;
25667;SDS011;18003;-33.830;151.202;2022-12-11T15:18:32;5.62;;;2.80;;
25667;SDS011;18003;-33.830;151.202;2022-12-11T15:21:04;5.55;;;2.33;;
25667;SDS011;18003;-33.830;151.202;2022-12-11T15:23:54;4.78;;;2.50;;
25667;SDS011;18003;-33.830;151.202;2022-12-11T15:26:16;3.75;;;2.25;;
25667;SDS011;18003;-33.830;151.202;2022-12-11T15:28:57;4.78;;;2.67;;
25667;SDS011;18003;-33.830;151.202;2022-12-11T15:31:25;5.03;;;2.70;;
25667;SDS011;18003;-33.830;151.202;2022-12-11T15:33:57;5.45;;;2.70;;
25667;SDS011;18003;-33.830;151.202;2022-12-11T15:36:31;4.85;;;2.37;;
25667;SDS011;18003;-33.830;151.202;2022-12-11T15:39:02;4.30;;;2.33;;
25667;SDS011;18003;-33.830;151.202;2022-12-11T15:41:34;3.77;;;2.58;;
25667;SDS011;18003;-33.830;151.202;2022-12-11T15:44:04;3.55;;;2.10;;
25667;SDS011;18003;-33.830;151.202;2022-12-11T15:46:36;9.20;;;3.00;;
25667;SDS011;18003;-33.830;151.202;2022-12-11T15:49:13;3.08;;;2.22;;
25667;SDS011;18003;-33.830;151.202;2022-12-11T15:51:44;6.58;;;2.40;;